Sainte-Anne-De-Beaupre, Canada
Current Conditions -  °F | °C
As of 2:00 AM on Friday 19 Dec 2014 (Local Time) from CYQB Reporting Station
Broken Clouds Broken Clouds  
Wind Chill: 16°   Ceiling: 8500
Heat Index: 25°   Visibility: 15mi
Dew Point: 18°   Wind: 8mph
Humidity: 74%   Direction: 280°W
Pressure: 29.85"   Gusts: NA
Location:  47.02°N, 70.93°W
Report Text: CYQB 190700Z 28007KT 15SM BKN085 M04/M08 A2985 RMK AC5 SLP113
Loading
Personal Weather Stations






























Interactive Weather Map New forecast layout! Learn more

10-Day Weather Forecast

Advertisements
Track Severe Weather on mobile